Airfield :
LOGIN :

Register | Disclaimer

   EN    FR    IT 

 










Legend :    VFR   Marginal VFR   IFR   Intensive IFR   Very Intensive IFR
Visi :
Ceiling :
>= 8 km
>= 3000ft
5 to 8 km
1000 to 3000 ft
1500m to 5 km
500 to 1000 ft
800 to 1500m
200 to 500 ft
< 800m
< 200 ft
Symbols :   Thunderstorms  Fog  Heavy snow  Heavy precipitations  Wind > 20 kt
SIGMETs :     Misc.  Thunderstorms  Icing  Turbulence  Mountain Waves  Volcanic Ashes






- Airport Elevation : 325 ft


LPCS - Cascais

CURRENT METAR :
  • 192000Z 18004KT 1100 BR BKN002 18/17 Q1009

EXPIRED METARs :
  • 191930Z 15006KT 1500 BR BKN003 18/17 Q1008
  • 191900Z 20004KT 170V240 0700 R17/0600D FG BKN002 18/17 Q1009
  • 191830Z 22004KT 1200 R17/1300D -RADZ BR FEW001 SCT004 BKN012 18/17 Q1009
  • 191800Z 20011KT 1500 +RADZ SCT003 BKN012 18/17 Q1009

TAF TAF LPCS
Valid from the 19 at 15:00 until the 20 at 00:00 UTC


191400Z 1915/1924 17018KT 5000 -RADZ BR SCT005 BKN012
TEMPO 1915/1919 17020G33KT 3000 RA SCT003 BKN006
PROB40
TEMPO 1915/1919 1200 +DZRA BR OVC002
BECMG 1919/1921 22008KT



MET'MAP, your aeronautical weather chart ! - Copyright ORBIFLY December 2007 - Disclaimer

ORBIFLY MET'MAP TEAM :

Programming & Development : Alexandra Zaïnal
Concept & original design : Baudouin d'Aumeries
Assistance for programming : Marc-Olivier Méhu
Technical & hardware support : Manuel Goepfert

Contact : metmap@orbifly.com




SOURCES & CREDITS :

   NOAA